Time;durP1;ratioP1;P1;durP2;ratioP2;P2;SDS_P1;SDS_P2;PMS_P1;PMS_P2;Temp;Humidity;BMP_temperature;BMP_pressure;BME280_temperature;BME280_humidity;BME280_pressure;Samples;Min_cycle;Max_cycle;Signal;HPM_P1;HPM_P2
2020/12/30 00:01:05;;;;;;;1.77;1.15;;;8.40;96.70;;;;;;5020798;28;20041;-72
2020/12/30 00:03:34;;;;;;;1.35;1.05;;;8.30;96.70;;;;;;5003807;28;20540;-73
2020/12/30 00:06:02;;;;;;;2.75;1.45;;;8.30;96.70;;;;;;4988564;28;20033;-73
2020/12/30 00:08:29;;;;;;;3.40;1.35;;;8.30;96.70;;;;;;5020894;28;20049;-73
2020/12/30 00:10:58;;;;;;;1.77;1.30;;;8.30;96.70;;;;;;5020797;28;20037;-72
2020/12/30 00:13:25;;;;;;;2.60;1.58;;;8.30;96.70;;;;;;4996048;28;20099;-73
2020/12/30 00:15:52;;;;;;;2.55;1.67;;;8.30;96.70;;;;;;4986115;28;20049;-73
2020/12/30 00:18:20;;;;;;;3.25;1.63;;;8.30;96.70;;;;;;5003202;28;20034;-73
2020/12/30 00:20:48;;;;;;;2.97;1.40;;;8.30;96.70;;;;;;5003542;28;20042;-73
2020/12/30 00:23:15;;;;;;;2.55;1.42;;;8.30;96.70;;;;;;5019730;28;20075;-73
2020/12/30 00:25:42;;;;;;;3.13;1.90;;;8.20;96.70;;;;;;5021612;28;20042;-73
2020/12/30 00:28:10;;;;;;;4.00;1.58;;;8.20;96.70;;;;;;5004368;28;20056;-73
2020/12/30 00:30:37;;;;;;;3.95;1.40;;;8.10;96.70;;;;;;5022167;28;20373;-73
2020/12/30 00:33:05;;;;;;;2.65;1.63;;;8.10;96.70;;;;;;5019412;28;20099;-73
2020/12/30 00:35:33;;;;;;;2.78;1.38;;;8.00;96.70;;;;;;5021059;28;20046;-73
2020/12/30 00:38:00;;;;;;;4.03;1.75;;;8.00;96.70;;;;;;5003017;28;20072;-73
2020/12/30 00:40:28;;;;;;;4.35;1.73;;;8.00;96.70;;;;;;5022107;28;20053;-73
2020/12/30 00:42:55;;;;;;;2.78;1.65;;;8.00;96.70;;;;;;5002111;28;20052;-73
2020/12/30 00:45:22;;;;;;;1.98;1.60;;;7.90;96.70;;;;;;4987091;28;20419;-73
2020/12/30 00:47:49;;;;;;;5.22;2.85;;;7.90;96.70;;;;;;5019939;28;20501;-73
2020/12/30 00:50:16;;;;;;;3.25;2.55;;;7.90;96.70;;;;;;5018886;28;20044;-73
2020/12/30 00:52:45;;;;;;;3.17;2.10;;;7.90;96.70;;;;;;5018480;28;20410;-73
2020/12/30 00:55:13;;;;;;;2.70;1.58;;;7.90;96.70;;;;;;5003207;28;20522;-73
2020/12/30 00:57:49;;;;;;;3.20;2.20;;;7.90;96.70;;;;;;5002903;28;20048;-73
2020/12/30 01:00:18;;;;;;;3.05;2.00;;;7.90;96.70;;;;;;5021522;28;20056;-73
2020/12/30 01:02:54;;;;;;;;;;;7.90;96.70;;;;;;5021480;28;20116;-73
2020/12/30 01:05:22;;;;;;;2.70;2.00;;;7.90;96.70;;;;;;4984991;28;19953;-73
2020/12/30 01:07:49;;;;;;;2.95;2.28;;;7.90;96.70;;;;;;5016960;28;20045;-73
2020/12/30 01:10:17;;;;;;;2.83;2.35;;;7.90;96.70;;;;;;5001435;28;20441;-73
2020/12/30 01:12:44;;;;;;;2.83;2.08;;;7.80;96.70;;;;;;4998842;28;20434;-73
2020/12/30 01:15:11;;;;;;;3.28;2.35;;;7.80;96.70;;;;;;5021532;28;20052;-73
2020/12/30 01:17:39;;;;;;;4.00;2.60;;;7.80;96.70;;;;;;5003323;28;20049;-73
2020/12/30 01:20:06;;;;;;;2.58;2.10;;;7.80;96.70;;;;;;5019437;28;20050;-73
2020/12/30 01:22:33;;;;;;;3.42;2.50;;;7.80;96.70;;;;;;4995728;23;20085;-71
2020/12/30 01:25:01;;;;;;;3.80;2.85;;;7.80;96.70;;;;;;4998218;28;20073;-72
2020/12/30 01:27:29;;;;;;;4.75;2.95;;;7.80;96.70;;;;;;4979708;28;20046;-72
2020/12/30 01:29:56;;;;;;;5.75;3.65;;;7.80;96.70;;;;;;4965831;28;20693;-72
2020/12/30 01:32:23;;;;;;;5.43;3.47;;;7.80;96.70;;;;;;4996750;28;20418;-72
2020/12/30 01:34:50;;;;;;;5.50;3.30;;;7.70;96.70;;;;;;4992737;28;20496;-71
2020/12/30 01:37:17;;;;;;;4.07;3.40;;;7.70;96.70;;;;;;4995697;28;20054;-72
2020/12/30 01:39:44;;;;;;;4.40;2.97;;;7.70;96.70;;;;;;4982049;28;20056;-72
2020/12/30 01:42:12;;;;;;;3.42;2.75;;;7.60;96.70;;;;;;4998322;28;20034;-72
2020/12/30 01:44:40;;;;;;;4.18;3.25;;;7.60;96.70;;;;;;4998149;28;20124;-72
2020/12/30 01:47:08;;;;;;;3.00;2.45;;;7.50;96.70;;;;;;4978483;28;20053;-72
2020/12/30 01:49:35;;;;;;;4.90;2.80;;;7.50;96.70;;;;;;4965444;28;20042;-72
2020/12/30 01:52:03;;;;;;;3.00;2.40;;;7.50;96.70;;;;;;4996619;28;20624;-72
2020/12/30 01:54:31;;;;;;;3.67;2.55;;;7.50;96.70;;;;;;4999325;28;20069;-72
2020/12/30 01:56:58;;;;;;;3.67;2.67;;;7.50;96.70;;;;;;4996829;28;20128;-72
2020/12/30 01:59:27;;;;;;;4.43;2.80;;;7.40;96.70;;;;;;4994683;28;20337;-72
2020/12/30 02:02:00;;;;;;;3.83;2.60;;;7.50;96.70;;;;;;4995989;28;20060;-72
2020/12/30 02:04:39;;;;;;;3.00;2.60;;;7.50;96.70;;;;;;4982109;28;20104;-72
2020/12/30 02:07:06;;;;;;;4.00;2.53;;;7.40;96.70;;;;;;4985144;28;20125;-72
2020/12/30 02:09:33;;;;;;;3.15;2.65;;;7.40;96.70;;;;;;4987670;28;20475;-72
2020/12/30 02:12:01;;;;;;;3.35;2.97;;;7.30;96.70;;;;;;4989645;28;20050;-72
2020/12/30 02:14:29;;;;;;;3.20;2.47;;;7.30;96.70;;;;;;4981422;28;20045;-72
2020/12/30 02:16:56;;;;;;;3.00;2.30;;;7.30;96.70;;;;;;4980760;28;20132;-72
2020/12/30 02:19:24;;;;;;;2.53;2.17;;;7.30;96.70;;;;;;4994975;28;20120;-72
2020/12/30 02:21:55;;;;;;;2.38;2.00;;;7.30;96.70;;;;;;4994009;28;20069;-72
2020/12/30 02:24:27;;;;;;;3.95;2.38;;;7.30;96.70;;;;;;4996607;28;20312;-72
2020/12/30 02:26:54;;;;;;;4.40;2.60;;;7.30;96.70;;;;;;4979728;28;20130;-72
2020/12/30 02:29:25;;;;;;;2.83;2.30;;;7.30;96.70;;;;;;4998751;28;20034;-72
2020/12/30 02:31:52;;;;;;;3.33;2.30;;;7.40;96.70;;;;;;4979951;28;20034;-72
2020/12/30 02:34:21;;;;;;;2.63;1.83;;;7.30;96.70;;;;;;4993975;28;20041;-72
2020/12/30 02:36:48;;;;;;;2.85;2.17;;;7.30;96.70;;;;;;4978526;28;20038;-72
2020/12/30 02:39:16;;;;;;;5.10;1.65;;;7.30;96.70;;;;;;4996959;28;20134;-72
2020/12/30 02:41:44;;;;;;;2.88;1.65;;;7.30;96.70;;;;;;4998420;28;20050;-72
2020/12/30 02:44:11;;;;;;;2.38;1.70;;;7.30;96.70;;;;;;4989394;28;20567;-72
2020/12/30 02:46:39;;;;;;;3.85;2.03;;;7.40;96.70;;;;;;4994350;28;20057;-72
2020/12/30 02:49:06;;;;;;;2.75;2.20;;;7.40;96.70;;;;;;4997499;28;20042;-72
2020/12/30 02:51:33;;;;;;;3.08;2.60;;;7.40;96.70;;;;;;4966324;28;20129;-72
2020/12/30 02:54:00;;;;;;;2.97;2.30;;;7.50;96.70;;;;;;4978549;28;20175;-72
2020/12/30 02:56:27;;;;;;;3.28;2.35;;;7.50;96.70;;;;;;4996705;28;20058;-72
2020/12/30 02:58:55;;;;;;;2.60;2.00;;;7.50;96.70;;;;;;4996373;28;20042;-72
2020/12/30 03:01:22;;;;;;;2.80;2.10;;;7.50;96.70;;;;;;4994966;28;20049;-72
2020/12/30 03:03:49;;;;;;;2.42;2.13;;;7.50;96.70;;;;;;4980808;28;20050;-72
2020/12/30 03:06:22;;;;;;;3.38;2.58;;;7.50;96.70;;;;;;4999002;28;20045;-72
2020/12/30 03:08:49;;;;;;;2.78;2.30;;;7.60;96.70;;;;;;4994652;28;20077;-72
2020/12/30 03:11:17;;;;;;;2.38;2.15;;;7.50;96.70;;;;;;4996344;28;20030;-72
2020/12/30 03:13:44;;;;;;;2.80;2.20;;;7.60;96.70;;;;;;4993639;28;20099;-72
2020/12/30 03:16:11;;;;;;;3.00;2.45;;;7.50;96.70;;;;;;4997722;28;20042;-72
2020/12/30 03:18:38;;;;;;;3.22;2.13;;;7.50;96.70;;;;;;4996465;28;20038;-72
2020/12/30 03:21:06;;;;;;;3.90;2.22;;;7.50;96.70;;;;;;4978336;28;20657;-72
2020/12/30 03:23:33;;;;;;;2.40;2.00;;;7.40;96.70;;;;;;4992077;28;20646;-72
2020/12/30 03:26:00;;;;;;;2.65;1.70;;;7.50;96.70;;;;;;4994570;28;20045;-72
2020/12/30 03:28:27;;;;;;;3.55;2.35;;;7.50;96.70;;;;;;4979222;28;20094;-72
2020/12/30 03:30:54;;;;;;;4.30;2.35;;;7.50;96.70;;;;;;4981307;28;20542;-72
2020/12/30 03:33:22;;;;;;;2.15;1.90;;;7.50;96.70;;;;;;4978092;28;20042;-72
2020/12/30 03:35:49;;;;;;;2.38;1.70;;;7.50;96.70;;;;;;4994709;28;20266;-72
2020/12/30 03:38:16;;;;;;;2.78;1.50;;;7.50;96.70;;;;;;4978326;28;20337;-72
2020/12/30 03:40:43;;;;;;;2.25;1.75;;;7.50;96.70;;;;;;4999960;28;20787;-72
2020/12/30 03:43:10;;;;;;;2.10;1.45;;;7.40;96.70;;;;;;4997525;28;20661;-72
2020/12/30 03:45:37;;;;;;;3.58;1.60;;;7.40;96.70;;;;;;4976015;28;20131;-71
2020/12/30 03:48:04;;;;;;;2.25;1.60;;;7.40;96.70;;;;;;4981393;28;20045;-72
2020/12/30 03:50:32;;;;;;;1.77;1.35;;;7.40;96.70;;;;;;4998646;28;20041;-72
2020/12/30 03:52:59;;;;;;;2.35;1.58;;;7.40;96.70;;;;;;5000766;28;20042;-72
2020/12/30 03:55:26;;;;;;;1.90;1.52;;;7.40;96.70;;;;;;4993924;28;20049;-72
2020/12/30 03:57:53;;;;;;;2.60;1.73;;;7.40;96.70;;;;;;4995123;28;20764;-72
2020/12/30 04:00:20;;;;;;;4.18;1.83;;;7.30;96.70;;;;;;4995631;28;20442;-72
2020/12/30 04:02:47;;;;;;;2.53;1.50;;;7.30;96.70;;;;;;4999134;28;20040;-72
2020/12/30 04:05:14;;;;;;;3.20;1.58;;;7.30;96.70;;;;;;4992307;28;20038;-71
2020/12/30 04:07:42;;;;;;;2.53;1.40;;;7.30;96.70;;;;;;4977776;28;20559;-72
2020/12/30 04:10:09;;;;;;;2.17;1.33;;;7.20;96.70;;;;;;4995000;28;20038;-72
2020/12/30 04:12:37;;;;;;;2.92;1.40;;;7.30;96.70;;;;;;4998873;28;20073;-72
2020/12/30 04:15:04;;;;;;;2.15;1.60;;;7.30;96.70;;;;;;5000049;28;20113;-72
2020/12/30 04:17:31;;;;;;;1.27;1.10;;;7.30;96.70;;;;;;5001271;28;20465;-72
2020/12/30 04:19:58;;;;;;;1.77;1.17;;;7.40;96.70;;;;;;4976138;28;20088;-72
2020/12/30 04:22:25;;;;;;;2.67;1.55;;;7.40;96.70;;;;;;5000246;28;20368;-72
2020/12/30 04:24:53;;;;;;;1.58;1.30;;;7.30;96.70;;;;;;4996289;28;20034;-72
2020/12/30 04:27:20;;;;;;;1.98;1.58;;;7.30;96.70;;;;;;5002125;28;20035;-71
2020/12/30 04:29:47;;;;;;;2.72;2.35;;;7.30;96.70;;;;;;4983478;28;20046;-70
2020/12/30 04:32:14;;;;;;;2.42;1.70;;;7.20;96.70;;;;;;4982889;28;20049;-71
2020/12/30 04:34:42;;;;;;;3.25;1.95;;;7.20;96.70;;;;;;4981752;28;20121;-71
2020/12/30 04:37:11;;;;;;;1.67;1.50;;;7.30;96.70;;;;;;4999655;28;20040;-71
2020/12/30 04:39:38;;;;;;;1.73;1.38;;;7.30;96.70;;;;;;4996518;28;20034;-71
2020/12/30 04:42:08;;;;;;;2.60;1.50;;;7.30;96.70;;;;;;5000208;28;20049;-70
2020/12/30 04:44:41;;;;;;;1.52;1.42;;;7.40;96.70;;;;;;4994911;28;20049;-71
2020/12/30 04:47:09;;;;;;;2.15;1.52;;;7.40;96.70;;;;;;4984143;28;20038;-71
2020/12/30 04:49:36;;;;;;;2.63;1.70;;;7.20;96.70;;;;;;4997687;28;20045;-71
2020/12/30 04:52:05;;;;;;;2.70;2.10;;;7.20;96.70;;;;;;4998268;28;20050;-71
2020/12/30 04:54:34;;;;;;;3.40;2.13;;;7.10;96.70;;;;;;4997383;28;20042;-71
2020/12/30 04:57:03;;;;;;;2.85;1.80;;;7.20;96.70;;;;;;4991210;28;20541;-71
2020/12/30 04:59:39;;;;;;;2.72;2.33;;;7.20;96.70;;;;;;4967229;28;20045;-71
2020/12/30 05:02:08;;;;;;;4.68;3.20;;;7.20;96.70;;;;;;4982003;28;20066;-71
2020/12/30 05:04:37;;;;;;;2.75;2.03;;;7.20;96.70;;;;;;4997343;28;20042;-70
2020/12/30 05:07:08;;;;;;;3.47;2.53;;;7.10;96.70;;;;;;5001425;28;20042;-71
2020/12/30 05:09:37;;;;;;;2.58;2.20;;;7.20;96.70;;;;;;4999915;28;20041;-71
2020/12/30 05:12:10;;;;;;;4.55;2.65;;;7.10;96.70;;;;;;4991415;28;20488;-71
2020/12/30 05:14:39;;;;;;;2.45;1.80;;;7.00;96.70;;;;;;4989206;28;20173;-70
2020/12/30 05:17:07;;;;;;;3.40;2.35;;;7.00;96.70;;;;;;4999657;28;20039;-70
2020/12/30 05:19:34;;;;;;;3.58;2.70;;;7.00;96.70;;;;;;5002438;28;20038;-71
2020/12/30 05:22:01;;;;;;;3.15;2.50;;;7.00;96.70;;;;;;4980578;28;20453;-71
2020/12/30 05:24:29;;;;;;;2.50;2.20;;;7.00;96.70;;;;;;4977272;28;20046;-70
2020/12/30 05:26:57;;;;;;;2.47;2.28;;;7.00;96.70;;;;;;4979763;28;20089;-71
2020/12/30 05:29:25;;;;;;;2.90;2.53;;;7.00;96.70;;;;;;4980228;28;20637;-71
2020/12/30 05:31:53;;;;;;;2.90;2.50;;;7.00;96.70;;;;;;4983208;28;20049;-71
2020/12/30 05:34:23;;;;;;;3.70;2.55;;;7.00;96.70;;;;;;4965612;28;20035;-71
2020/12/30 05:36:51;;;;;;;6.25;2.80;;;6.90;96.70;;;;;;4975989;28;20294;-70
2020/12/30 05:39:21;;;;;;;2.85;2.55;;;6.90;96.70;;;;;;4986472;28;20049;-70
2020/12/30 05:41:48;;;;;;;3.33;2.97;;;6.90;96.70;;;;;;4980136;28;20042;-70
2020/12/30 05:44:18;;;;;;;3.53;2.60;;;6.90;96.70;;;;;;4966170;28;20038;-71
2020/12/30 05:46:46;;;;;;;4.07;2.90;;;6.80;96.70;;;;;;4978749;28;20046;-70
2020/12/30 05:49:32;;;;;;;4.57;2.85;;;6.90;96.70;;;;;;4959181;28;20039;-71
2020/12/30 05:52:17;;;;;;;3.40;2.67;;;6.90;96.70;;;;;;4963328;28;20074;-71
2020/12/30 05:54:46;;;;;;;3.70;2.83;;;6.80;96.70;;;;;;4978590;28;20043;-72
2020/12/30 05:57:24;;;;;;;3.20;2.90;;;6.80;96.70;;;;;;4962630;28;20470;-70
2020/12/30 05:59:53;;;;;;;5.00;3.22;;;6.80;96.70;;;;;;4963285;28;20563;-70
2020/12/30 06:02:26;;;;;;;6.30;3.13;;;6.90;96.70;;;;;;4978508;28;20061;-71
2020/12/30 06:04:55;;;;;;;3.72;2.88;;;6.90;96.70;;;;;;4964737;28;20042;-71
2020/12/30 06:07:24;;;;;;;3.72;2.70;;;6.90;96.70;;;;;;4961699;28;20045;-70
2020/12/30 06:09:55;;;;;;;3.13;2.58;;;6.80;96.70;;;;;;4976531;28;20043;-71
2020/12/30 06:12:25;;;;;;;8.13;3.20;;;6.80;96.70;;;;;;4963411;28;20396;-71
2020/12/30 06:14:53;;;;;;;5.57;3.05;;;6.80;96.70;;;;;;4979765;28;20144;-70
2020/12/30 06:17:26;;;;;;;4.00;3.03;;;6.90;96.70;;;;;;4979904;28;20443;-70
2020/12/30 06:19:55;;;;;;;4.07;3.33;;;6.80;96.70;;;;;;4961027;28;20497;-71
2020/12/30 06:22:27;;;;;;;4.15;2.67;;;6.80;96.70;;;;;;4980044;28;20058;-71
2020/12/30 06:24:55;;;;;;;3.03;2.60;;;6.70;96.70;;;;;;4985484;28;20576;-70
2020/12/30 06:27:25;;;;;;;2.30;2.10;;;6.60;96.70;;;;;;4981889;28;20360;-70
2020/12/30 06:29:55;;;;;;;5.25;2.60;;;6.60;96.70;;;;;;4976887;28;20046;-71
2020/12/30 06:32:27;;;;;;;4.32;2.97;;;6.60;96.70;;;;;;4957890;28;20039;-70
2020/12/30 06:34:55;;;;;;;4.18;2.63;;;6.60;96.70;;;;;;4978071;28;20500;-70
2020/12/30 06:37:27;;;;;;;2.85;2.28;;;6.60;96.70;;;;;;4984324;28;20406;-71
2020/12/30 06:40:16;;;;;;;4.63;2.60;;;6.60;96.70;;;;;;4980132;28;20050;-70
2020/12/30 06:42:44;;;;;;;3.30;2.55;;;6.60;96.70;;;;;;4986756;28;20066;-72
2020/12/30 06:45:13;;;;;;;3.05;2.40;;;6.60;96.70;;;;;;4969894;28;20061;-71
2020/12/30 06:47:57;;;;;;;3.78;3.25;;;6.60;96.70;;;;;;4950697;28;21025;-71
2020/12/30 06:50:25;;;;;;;3.83;3.13;;;6.70;96.70;;;;;;4961209;28;21247;-70
2020/12/30 06:52:52;;;;;;;4.13;2.60;;;6.70;96.70;;;;;;4982714;28;20097;-70
2020/12/30 06:55:43;;;;;;;3.28;2.78;;;6.70;96.70;;;;;;4963542;28;20511;-71
2020/12/30 06:58:32;;;;;;;4.70;2.90;;;6.60;96.70;;;;;;4951350;28;20045;-71
2020/12/30 07:00:59;;;;;;;3.13;2.75;;;6.60;96.70;;;;;;4964121;28;20499;-73
2020/12/30 07:03:32;;;;;;;3.20;2.72;;;6.70;96.70;;;;;;4961638;28;20038;-71
2020/12/30 07:06:29;;;;;;;3.05;2.55;;;6.70;96.70;;;;;;4966495;28;20101;-71
2020/12/30 07:09:00;;;;;;;4.40;3.30;;;6.80;96.70;;;;;;4964283;28;20440;-71
2020/12/30 07:11:43;;;;;;;4.93;4.25;;;7.00;96.70;;;;;;4983828;28;20052;-73
2020/12/30 07:14:12;;;;;;;3.40;2.97;;;6.90;96.70;;;;;;4982674;28;20055;-72
2020/12/30 07:16:40;;;;;;;4.25;3.55;;;6.80;96.70;;;;;;4984307;28;20041;-71
2020/12/30 07:19:10;;;;;;;4.53;3.58;;;6.90;96.70;;;;;;4985574;28;20053;-72
2020/12/30 07:21:48;;;;;;;4.47;3.80;;;6.90;96.70;;;;;;4968773;28;20049;-72
2020/12/30 07:24:20;;;;;;;4.88;4.18;;;6.90;96.70;;;;;;4999676;28;20104;-72
2020/12/30 07:26:48;;;;;;;4.63;3.95;;;6.90;96.70;;;;;;4971004;28;20407;-72
2020/12/30 07:29:16;;;;;;;4.60;4.20;;;6.90;96.70;;;;;;5001187;28;20069;-72
2020/12/30 07:31:48;;;;;;;5.50;4.95;;;7.00;96.70;;;;;;4998811;28;20061;-72
2020/12/30 07:34:17;;;;;;;5.60;4.60;;;7.00;96.70;;;;;;4984221;28;20474;-72
2020/12/30 07:36:46;;;;;;;5.72;4.78;;;7.00;96.70;;;;;;4968255;28;20038;-72
2020/12/30 07:39:14;;;;;;;6.63;5.90;;;7.00;96.70;;;;;;4985322;28;20712;-72
2020/12/30 07:41:45;;;;;;;7.15;5.65;;;7.00;96.70;;;;;;4998510;28;20065;-72
2020/12/30 07:44:15;;;;;;;6.68;5.65;;;7.00;96.70;;;;;;5000253;28;20041;-72
2020/12/30 07:46:43;;;;;;;9.13;6.40;;;7.00;96.70;;;;;;5000384;28;20046;-71
2020/12/30 07:49:13;;;;;;;9.15;7.00;;;7.00;96.70;;;;;;5002436;28;20035;-72
2020/12/30 07:51:51;;;;;;;7.45;6.43;;;7.00;96.70;;;;;;4996621;28;20041;-71
2020/12/30 07:54:19;;;;;;;9.18;6.85;;;7.00;96.70;;;;;;4996251;28;20049;-71
2020/12/30 07:56:49;;;;;;;8.57;7.63;;;7.00;96.70;;;;;;4984293;28;20046;-72
2020/12/30 07:59:20;;;;;;;7.97;6.95;;;7.00;96.70;;;;;;4985706;28;20046;-72
2020/12/30 08:01:57;;;;;;;9.82;7.80;;;6.90;96.70;;;;;;4976086;28;21173;-72
2020/12/30 08:04:26;;;;;;;8.70;7.80;;;7.00;96.70;;;;;;4997317;28;20052;-72
2020/12/30 08:06:53;;;;;;;9.48;7.43;;;7.00;96.70;;;;;;4983507;28;20046;-71
2020/12/30 08:09:26;;;;;;;12.68;8.77;;;7.10;96.70;;;;;;4994425;28;20042;-71
2020/12/30 08:11:56;;;;;;;11.85;9.55;;;7.10;96.70;;;;;;4993413;28;20044;-71
2020/12/30 08:14:26;;;;;;;18.98;14.70;;;7.10;96.70;;;;;;4998509;28;20496;-71
2020/12/30 08:16:57;;;;;;;11.27;9.13;;;7.10;96.70;;;;;;4967160;28;20050;-71
2020/12/30 08:19:42;;;;;;;7.78;6.70;;;7.10;96.70;;;;;;4991964;28;20049;-70
2020/12/30 08:22:11;;;;;;;7.75;6.13;;;7.10;96.70;;;;;;5001250;28;20053;-71
2020/12/30 08:24:41;;;;;;;7.20;5.53;;;7.10;96.70;;;;;;4983809;28;20051;-71
2020/12/30 08:27:11;;;;;;;7.85;5.90;;;7.10;96.70;;;;;;4981996;28;20129;-71
2020/12/30 08:30:00;;;;;;;8.70;6.68;;;7.10;96.70;;;;;;4969196;28;20062;-71
2020/12/30 08:32:41;;;;;;;7.85;5.82;;;7.10;96.70;;;;;;4984104;28;20072;-71
2020/12/30 08:35:10;;;;;;;9.77;5.65;;;7.10;96.70;;;;;;4996819;28;20243;-71
2020/12/30 08:37:40;;;;;;;7.70;5.38;;;7.10;96.70;;;;;;5000625;28;20038;-71
2020/12/30 08:40:14;;;;;;;7.50;5.05;;;7.10;96.70;;;;;;4985065;28;20148;-71
2020/12/30 08:43:11;;;;;;;8.00;5.50;;;7.10;96.70;;;;;;4996932;28;20070;-71
2020/12/30 08:45:56;;;;;;;7.23;5.13;;;7.10;96.70;;;;;;4994619;28;20049;-71
2020/12/30 08:48:29;;;;;;;7.93;5.10;;;7.10;96.70;;;;;;4997396;28;20042;-72
2020/12/30 08:50:57;;;;;;;6.13;4.60;;;7.20;96.70;;;;;;4997519;28;20038;-71
2020/12/30 08:53:39;;;;;;;9.77;5.43;;;7.30;96.70;;;;;;4983987;28;20060;-71
2020/12/30 08:56:07;;;;;;;25.40;15.75;;;7.30;96.70;;;;;;4983574;28;20077;-71
2020/12/30 08:58:35;;;;;;;18.27;12.10;;;7.30;96.70;;;;;;4976578;28;20436;-73
2020/12/30 09:01:19;;;;;;;22.83;15.65;;;7.30;96.70;;;;;;4995799;28;20042;-73
2020/12/30 09:03:46;;;;;;;11.70;8.70;;;7.30;96.70;;;;;;4994694;28;20050;-71
2020/12/30 09:06:26;;;;;;;85.57;52.85;;;7.30;96.70;;;;;;4999399;28;20042;-72
2020/12/30 09:08:54;;;;;;;34.70;23.88;;;7.40;96.70;;;;;;4996501;28;20050;-71
2020/12/30 09:11:21;;;;;;;20.15;16.20;;;7.40;96.70;;;;;;4998622;28;20046;-71
2020/12/30 09:13:49;;;;;;;26.15;16.98;;;7.40;96.70;;;;;;4996627;28;20045;-71
2020/12/30 09:16:17;;;;;;;20.52;13.73;;;7.40;96.70;;;;;;4986721;28;20054;-70
2020/12/30 09:18:49;;;;;;;17.60;12.55;;;7.40;96.70;;;;;;4966096;28;20042;-73
2020/12/30 09:21:23;;;;;;;11.07;8.00;;;7.40;96.70;;;;;;4990841;28;20057;-73
2020/12/30 09:23:50;;;;;;;10.27;7.93;;;7.30;96.70;;;;;;4977685;28;20117;-73
2020/12/30 09:26:33;;;;;;;8.90;7.97;;;7.40;96.70;;;;;;4961659;28;20050;-71
2020/12/30 09:29:00;;;;;;;8.52;6.63;;;7.40;96.70;;;;;;4974562;28;20049;-71
2020/12/30 09:31:28;;;;;;;7.93;6.47;;;7.40;96.70;;;;;;4962715;28;20050;-71
2020/12/30 09:33:56;;;;;;;9.27;6.78;;;7.40;96.70;;;;;;4977384;28;20568;-72
2020/12/30 09:36:23;;;;;;;8.60;6.28;;;7.40;96.70;;;;;;4961530;28;20039;-71
2020/12/30 09:38:55;;;;;;;7.60;5.78;;;7.40;96.70;;;;;;4975014;28;20059;-71
2020/12/30 09:41:22;;;;;;;8.05;6.85;;;7.40;96.70;;;;;;4977738;28;20043;-71
2020/12/30 09:43:49;;;;;;;8.60;6.65;;;7.40;96.70;;;;;;4962954;28;20038;-71
2020/12/30 09:46:21;;;;;;;9.23;6.85;;;7.40;96.70;;;;;;4978717;28;20133;-70
2020/12/30 09:48:50;;;;;;;12.70;9.32;;;7.50;96.70;;;;;;4961824;28;20111;-71
2020/12/30 09:51:17;;;;;;;11.57;9.15;;;7.50;96.70;;;;;;4957222;28;20125;-71
2020/12/30 09:53:45;;;;;;;13.10;9.05;;;7.50;96.70;;;;;;4974658;28;20054;-71
2020/12/30 09:56:13;;;;;;;13.05;10.00;;;7.50;96.70;;;;;;4977887;28;20048;-71
2020/12/30 09:58:41;;;;;;;11.15;9.20;;;7.50;96.70;;;;;;4981294;28;20053;-72
2020/12/30 10:01:08;;;;;;;14.43;10.32;;;7.50;96.70;;;;;;4974371;28;20063;-72
2020/12/30 10:03:36;;;;;;;10.77;9.23;;;7.40;96.70;;;;;;4975840;28;20053;-72
2020/12/30 10:06:04;;;;;;;11.65;7.50;;;7.40;96.70;;;;;;4978080;28;20090;-71
2020/12/30 10:08:32;;;;;;;9.18;7.70;;;7.40;96.70;;;;;;4976005;28;20078;-72
2020/12/30 10:10:59;;;;;;;13.05;9.70;;;7.50;96.70;;;;;;4972971;28;20044;-72
2020/12/30 10:13:26;;;;;;;9.50;7.07;;;7.50;96.70;;;;;;4962328;28;20049;-72
2020/12/30 10:15:54;;;;;;;9.48;7.07;;;7.50;96.70;;;;;;4975973;28;20129;-72
2020/12/30 10:18:21;;;;;;;6.75;5.57;;;7.50;96.70;;;;;;4958006;28;20038;-72
2020/12/30 10:20:51;;;;;;;8.55;6.15;;;7.50;96.70;;;;;;4978147;28;20045;-72
2020/12/30 10:23:19;;;;;;;8.85;6.97;;;7.50;96.70;;;;;;4977383;28;20057;-72
2020/12/30 10:25:47;;;;;;;8.63;6.68;;;7.50;96.70;;;;;;4995252;28;20132;-72
2020/12/30 10:28:14;;;;;;;8.40;6.85;;;7.50;96.70;;;;;;4965654;28;20048;-71
2020/12/30 10:30:42;;;;;;;9.07;6.97;;;7.50;96.70;;;;;;4978963;28;20042;-71
2020/12/30 10:33:13;;;;;;;67.38;57.78;;;7.50;96.70;;;;;;4999602;28;20046;-71
2020/12/30 10:35:40;;;;;;;20.00;16.33;;;7.50;96.70;;;;;;4981156;28;20447;-71
2020/12/30 10:38:08;;;;;;;13.80;11.27;;;7.70;96.70;;;;;;4997013;28;20849;-72
2020/12/30 10:40:36;;;;;;;14.60;10.93;;;7.70;96.70;;;;;;4996856;28;20101;-72
2020/12/30 10:43:04;;;;;;;12.18;8.38;;;7.70;96.70;;;;;;5000047;28;20042;-73
2020/12/30 10:45:32;;;;;;;10.10;7.55;;;7.70;96.70;;;;;;4983502;28;20590;-72
2020/12/30 10:47:59;;;;;;;8.65;6.18;;;7.60;96.70;;;;;;5003307;28;20476;-73
2020/12/30 10:50:26;;;;;;;9.88;6.28;;;7.70;96.70;;;;;;4982115;28;20594;-73
2020/12/30 10:52:54;;;;;;;8.02;6.30;;;7.70;96.70;;;;;;4999035;28;20033;-73
2020/12/30 10:55:21;;;;;;;6.57;5.45;;;7.70;96.70;;;;;;4998491;28;20528;-73
2020/12/30 10:57:50;;;;;;;6.70;5.57;;;7.70;96.70;;;;;;5002844;28;20241;-72
2020/12/30 11:00:17;;;;;;;6.88;4.57;;;7.70;96.70;;;;;;4967713;28;20136;-72
2020/12/30 11:02:45;;;;;;;7.35;5.25;;;7.70;96.70;;;;;;4986114;28;20065;-72
2020/12/30 11:05:12;;;;;;;7.97;4.82;;;7.80;96.70;;;;;;4983932;28;20038;-71
2020/12/30 11:07:40;;;;;;;6.07;5.07;;;7.80;96.70;;;;;;4983613;28;20515;-71
2020/12/30 11:10:07;;;;;;;6.93;5.53;;;7.80;96.70;;;;;;5003087;28;20046;-71
2020/12/30 11:12:38;;;;;;;6.25;4.97;;;7.80;96.70;;;;;;5001544;28;20351;-72
2020/12/30 11:15:09;;;;;;;6.90;4.80;;;7.80;96.70;;;;;;4987039;28;20042;-72
2020/12/30 11:17:37;;;;;;;6.28;5.13;;;7.80;96.70;;;;;;5001614;28;20045;-73
2020/12/30 11:20:04;;;;;;;5.72;4.60;;;7.80;96.70;;;;;;4993377;28;20042;-71
2020/12/30 11:22:32;;;;;;;5.50;3.97;;;7.90;96.70;;;;;;4987265;28;20192;-73
2020/12/30 11:25:00;;;;;;;8.63;6.28;;;7.90;96.70;;;;;;4968157;28;20422;-72
2020/12/30 11:27:27;;;;;;;6.45;5.13;;;7.90;96.70;;;;;;4968144;28;20114;-70
2020/12/30 11:29:54;;;;;;;5.38;4.18;;;7.90;96.70;;;;;;4966419;28;20593;-71
2020/12/30 11:32:23;;;;;;;5.82;4.10;;;7.90;96.70;;;;;;4983022;28;20046;-71
2020/12/30 11:34:50;;;;;;;4.57;3.50;;;7.90;96.70;;;;;;4966050;28;20046;-70
2020/12/30 11:37:17;;;;;;;5.85;4.53;;;8.00;96.70;;;;;;4981847;28;20290;-70
2020/12/30 11:39:45;;;;;;;4.70;3.70;;;8.00;96.70;;;;;;4980143;28;20089;-71
2020/12/30 11:42:12;;;;;;;5.13;4.00;;;8.00;96.70;;;;;;4981351;28;20048;-70
2020/12/30 11:44:39;;;;;;;5.40;3.33;;;8.00;96.70;;;;;;4980730;28;20429;-70
2020/12/30 11:47:07;;;;;;;3.10;2.47;;;8.00;96.70;;;;;;4982209;28;20144;-70
2020/12/30 11:49:35;;;;;;;3.33;2.63;;;8.00;96.70;;;;;;4981880;28;20043;-70
2020/12/30 11:52:02;;;;;;;2.95;2.25;;;8.00;96.70;;;;;;4979208;28;20034;-70
2020/12/30 11:54:30;;;;;;;4.88;2.53;;;8.00;96.70;;;;;;4967568;28;20050;-70
2020/12/30 11:56:57;;;;;;;5.03;2.60;;;8.00;96.70;;;;;;4982823;28;20117;-70
2020/12/30 11:59:24;;;;;;;2.72;1.73;;;8.00;96.70;;;;;;4968852;28;20109;-70
2020/12/30 12:01:52;;;;;;;3.58;2.22;;;8.00;96.70;;;;;;4978941;28;20407;-70
2020/12/30 12:04:20;;;;;;;2.45;1.98;;;7.90;96.70;;;;;;4966948;28;20034;-70
2020/12/30 12:06:49;;;;;;;2.33;1.45;;;7.90;96.70;;;;;;4979715;28;20145;-70
2020/12/30 12:09:17;;;;;;;3.30;2.05;;;7.90;96.70;;;;;;4985245;28;20045;-70
2020/12/30 12:11:44;;;;;;;2.20;1.80;;;7.90;96.70;;;;;;4965581;28;20054;-70
2020/12/30 12:14:11;;;;;;;3.03;2.08;;;7.90;96.70;;;;;;4983129;28;20038;-71
2020/12/30 12:16:39;;;;;;;3.15;1.83;;;7.90;96.70;;;;;;4946613;28;20138;-70
2020/12/30 12:19:06;;;;;;;2.80;1.77;;;7.90;96.70;;;;;;4981507;28;20062;-70
2020/12/30 12:21:33;;;;;;;3.00;1.90;;;7.90;96.70;;;;;;4974517;28;20564;-70
2020/12/30 12:24:02;;;;;;;2.05;1.80;;;7.90;96.70;;;;;;5000917;28;20538;-70
2020/12/30 12:26:31;;;;;;;3.83;2.13;;;7.90;96.70;;;;;;4992850;28;20060;-70
2020/12/30 12:29:00;;;;;;;2.00;1.80;;;7.90;96.70;;;;;;4996536;28;20099;-70
2020/12/30 12:31:27;;;;;;;2.25;2.05;;;7.90;96.70;;;;;;4997530;28;20065;-70
2020/12/30 12:33:55;;;;;;;2.95;2.22;;;7.90;96.70;;;;;;4994738;28;20519;-71
2020/12/30 12:36:22;;;;;;;3.80;2.67;;;7.80;96.70;;;;;;4983447;28;20481;-70
2020/12/30 12:38:49;;;;;;;4.57;2.60;;;7.80;96.70;;;;;;4995071;28;20127;-71
2020/12/30 12:41:20;;;;;;;5.65;3.78;;;7.90;96.70;;;;;;4995333;28;20380;-69
2020/12/30 12:43:48;;;;;;;4.80;3.65;;;8.00;96.70;;;;;;4999967;28;20545;-71
2020/12/30 12:46:16;;;;;;;6.57;3.63;;;8.10;96.70;;;;;;4997296;28;20045;-71
2020/12/30 12:48:44;;;;;;;5.95;4.25;;;8.30;96.70;;;;;;4998687;28;20092;-72
2020/12/30 12:51:12;;;;;;;3.90;3.25;;;8.50;96.70;;;;;;4996813;28;20508;-72
2020/12/30 12:53:39;;;;;;;6.47;4.97;;;8.80;96.70;;;;;;4995693;28;20042;-71
2020/12/30 12:56:07;;;;;;;6.80;3.58;;;8.90;96.70;;;;;;4994456;28;20045;-71
2020/12/30 12:58:36;;;;;;;6.65;2.60;;;9.00;96.70;;;;;;5000199;28;20073;-73
2020/12/30 13:01:08;;;;;;;4.00;2.38;;;8.90;96.70;;;;;;4998065;28;20042;-71
2020/12/30 13:03:35;;;;;;;4.03;3.63;;;8.80;96.70;;;;;;4992802;28;20156;-72
2020/12/30 13:06:02;;;;;;;2.55;2.00;;;8.80;96.70;;;;;;4995689;28;20478;-70